메인 페이지
METAR-TAF:

METAR-TAF

공항 :

Talara, 페루

위도: 04-34S, 경도: 081-15W, 고도: 85m

현재 날씨관측

예보는 2 시간 54분 전, 03:00시(UTC)에 발표되었습니다.
남동8kt
온도 24°C
습도 78%
기압 1013 hPa
시정 10km 이상
고도 5000ft 상공 구름 많음

METAR: SPYL 220300Z 14008KT 9999 BKN050 24/20 Q1013 RMK PP000

시각: 00:54 (05:54 UTC)

예보

예보는 6 시간 49분 전, 23:05시(UTC)에 발표되었습니다.
예보 대상 시간: 22일 00시부터 22일 24시까지 (UTC)
서남서10kt
시정 10km 이상
1500m 미만 상공 구름 및 적란운 없음
전환 중
22일 15시부터 22일 17시까지 (UTC)
14kt

TAF: SPYL 212305Z 2200/2224 24010KT CAVOK TX34/2219Z TN20/2211Z BECMG 2215/2217 19014KT

4,000개 이상의 공항 관측 자료 및 예보 (METAR 및 TAF 보고).

지도상에서 검색 가능한 기상관측소가 노란 점과 빨간 점으로 표시되어 있습니다.

기상관측소 명을 보려면 표시 위로 마우스를 이동하세요.

날씨 관측과 예보를 보려면 클릭하세요.

지도 변경 : 확대하려면 엑스 표시가 있는 녹색 버튼, 축소하려면 빼기 표시가 있는 녹색 버튼, 다음 페이지의 지도를 보려면 녹색 화살표를 클릭하세요.


METAR-TAF: